• Join FlightAware (Why Join?)
  • Login
  • US Flag 
10:02AM EDT


 

Airport Tracker/Info


-or-


 

Live Flight TrackerFlight Track Log ✈ AFL150 ✈ 01-Nov-2013 ✈ ENGM / OSL - MUHA / HAV

Flight Track Log - Related Links

Times and Time Zones

All times are in EDT time to prevent confusion due to time zone crossing. See the AFL150 flight status page for this flight to view local times or setup timezone preferences in your user account.

Time Position Orientation Groundspeed Altitude Reporting Facility
EDT Latitude Longitude Course Direction KTS MPH feet Rate Location/Type
02:08PM 57.3701 -37.0000 204° Southwest  Level Estimated
02:09PM 57.3636 -37.2194 267° West  Level FlightAware Approximate
02:10PM 57.3567 -37.4388 267° West  Level FlightAware Approximate
02:11PM 57.3494 -37.6580 267° West  Level FlightAware Approximate
02:12PM 57.3417 -37.8772 266° West  Level FlightAware Approximate
02:13PM 57.3337 -38.0962 266° West  Level FlightAware Approximate
02:14PM 57.3252 -38.3152 266° West  Level FlightAware Approximate
02:15PM 57.3164 -38.5340 266° West  Level FlightAware Approximate
02:16PM 57.2596 -38.7264 201° Southwest  Level Estimated
02:17PM 57.2472 -38.9443 264° West  Level FlightAware Approximate
02:18PM 57.2345 -39.1620 264° West  Level FlightAware Approximate
02:19PM 57.2214 -39.3796 264° West  Level FlightAware Approximate
02:20PM 57.2079 -39.5970 264° West  Level FlightAware Approximate
02:21PM 57.1941 -39.8142 263° West  Level FlightAware Approximate
02:22PM 57.1798 -40.0313 263° West  Level FlightAware Approximate
02:23PM 57.1652 -40.2482 263° West  Level FlightAware Approximate
02:24PM 57.1502 -40.4650 263° West  Level FlightAware Approximate
02:25PM 57.1349 -40.6815 263° West  Level FlightAware Approximate
02:26PM 57.0741 -40.8688 201° Southwest  Level Estimated
02:27PM 57.0533 -41.0833 260° West  Level FlightAware Approximate
02:27PM 65.0000 -50.0000 241° Southwest 429 494 32,000  Level ETMS Enhanced Traffic Management System
02:28PM 57.0321 -41.2976 260° West  Level FlightAware Approximate
02:29PM 57.0106 -41.5117 260° West  Level FlightAware Approximate
02:30PM 56.9887 -41.7255 259° West  Level FlightAware Approximate
02:30PM 64.6990 -51.2310 259° West 433 498 32,000  Level FlightAware
02:31PM 56.9664 -41.9391 259° West  Level FlightAware Approximate
02:31PM 64.6550 -51.4050 239° Southwest 433 498 32,000  Level FlightAware
02:32PM 64.6040 -51.6040 241° Southwest 431 496 32,000  Level FlightAware
02:32PM 64.5660 -51.7530 239° Southwest 430 495 32,000  Level FlightAware
02:33PM 64.5190 -51.9360 239° Southwest 428 493 32,000  Level FlightAware
02:34PM 64.4830 -52.0750 239° Southwest 427 491 32,000  Level FlightAware
02:34PM 64.4450 -52.2170 238° Southwest 425 489 32,000  Level FlightAware
02:35PM 64.4080 -52.3570 239° Southwest 424 488 32,000  Level FlightAware
02:36PM 64.3600 -52.5390 239° Southwest 423 487 32,000  Level FlightAware
02:36PM 64.3210 -52.6840 238° Southwest 422 486 32,000  Level FlightAware
02:37PM 64.2860 -52.8160 239° Southwest 421 484 32,000  Level FlightAware
02:38PM 64.2380 -52.9930 238° Southwest 420 483 32,000  Level FlightAware
02:39PM 64.1960 -53.1470 238° Southwest 420 483 32,000  Level FlightAware
02:40PM 64.1320 -53.3820 238° Southwest 420 483 32,000  Level FlightAware
02:41PM 64.0900 -53.5360 238° Southwest 420 483 32,000  Level FlightAware
02:41PM 64.0660 -53.6220 237° Southwest 420 483 32,000  Level FlightAware
02:42PM 64.0350 -53.7380 239° Southwest 420 483 32,000  Level FlightAware
02:42PM 64.0030 -53.8530 238° Southwest 420 483 32,000  Level FlightAware
02:43PM 63.9620 -54.0030 238° Southwest 420 483 32,000  Level FlightAware
02:44PM 63.8990 -54.2320 238° Southwest 420 483 32,000  Level FlightAware
02:45PM 63.8790 -54.3050 238° Southwest 420 483 32,000  Level FlightAware
02:45PM 63.8380 -54.4550 238° Southwest 420 483 32,000  Level FlightAware
02:46PM 63.8040 -54.5750 237° Southwest 420 483 32,000  Level FlightAware
02:47PM 63.7730 -54.6890 238° Southwest 420 483 32,000  Level FlightAware
02:47PM 63.7510 -54.7690 238° Southwest 420 483 32,000  Level FlightAware
02:49PM 63.5333 -55.4500 235° Southwest 420 483 32,000  Level Gander Center
02:50PM 63.5742 -55.3103 234° Southwest  Level FlightAware Approximate
02:50PM 63.4833 -55.6500 241° Southwest 420 483 32,000  Level Gander Center
02:51PM 63.5034 -55.5235 233° Southwest  Level FlightAware Approximate
02:51PM 63.4000 -55.8833 231° Southwest 420 483 32,000  Level Gander Center
02:52PM 63.4339 -55.7402 236° Southwest  Level FlightAware Approximate
02:52PM 63.3500 -56.0833 241° Southwest 420 483 32,000  Level Gander Center
02:53PM 63.3674 -55.9559 236° Southwest  Level FlightAware Approximate
02:53PM 63.2667 -56.3167 232° Southwest 420 483 32,000  Level Gander Center
02:54PM 63.3005 -56.1707 235° Southwest  Level FlightAware Approximate
02:54PM 63.2000 -56.4667 225° Southwest 410 472 32,000  Level Gander Center
02:55PM 63.2333 -56.3844 235° Southwest  Level FlightAware Approximate
02:55PM 63.1500 -56.7000 245° Southwest 410 472 32,000  Level Gander Center
02:56PM 63.0667 -56.9000 227° Southwest 410 472 32,000  Level Gander Center
02:57PM 63.0167 -57.1167 243° Southwest 420 483 32,000  Level Gander Center
02:58PM 62.9500 -57.3167 234° Southwest 410 472 32,000  Level Gander Center
02:59PM 62.8667 -57.5000 225° Southwest 410 472 32,000  Level Gander Center
03:02PM 62.7366 -57.8931 234° Southwest  Level FlightAware Approximate
03:08PM 62.2833 -59.2167 234° Southwest 170 196 32,000  Level Gander Center
03:09PM 62.2482 -59.3117 234° Southwest  Level FlightAware Approximate
03:09PM 62.2167 -59.4333 237° Southwest 380 437 32,000  Level Gander Center
03:10PM 62.1772 -59.5106 233° Southwest  Level FlightAware Approximate
03:10PM 62.1333 -59.6500 231° Southwest 410 472 32,000  Level Gander Center
03:11PM 62.1060 -59.7085 232° Southwest  Level FlightAware Approximate
03:11PM 62.0667 -59.8333 232° Southwest 400 460 32,000  Level Gander Center
03:12PM 62.0345 -59.9055 232° Southwest  Level FlightAware Approximate
03:12PM 61.9833 -59.9833 220° Southwest 390 449 32,000  Level Gander Center
03:13PM 61.9645 -60.1048 234° Southwest  Level FlightAware Approximate
03:13PM 61.9333 -60.1500 238° Southwest 390 449 32,000  Level Gander Center
03:14PM 61.8959 -60.3057 234° Southwest  Level FlightAware Approximate
03:14PM 61.8667 -60.3667 237° Southwest 400 460 32,000  Level Gander Center
03:15PM 61.8167 -60.5833 244° Southwest 400 460 32,000  Level Gander Center
03:16PM 61.7500 -60.7833 235° Southwest 410 472 32,000  Level Gander Center
03:17PM 61.6833 -60.9667 233° Southwest 400 460 32,000  Level Gander Center
03:18PM 61.6167 -61.1500 233° Southwest 400 460 32,000  Level Gander Center
03:19PM 61.5500 -61.3167 230° Southwest 400 460 32,000  Level Gander Center
03:20PM 61.4833 -61.5333 237° Southwest 400 460 32,000  Level Gander Center
03:21PM 61.4333 -61.7000 238° Southwest 400 460 32,000  Level Gander Center
03:22PM 61.3667 -61.8667 230° Southwest 400 460 32,000  Level Gander Center
03:23PM 61.3000 -62.0833 237° Southwest 390 449 32,000  Level Gander Center
03:24PM 61.2333 -62.2500 230° Southwest 390 449 32,000  Level Gander Center
03:25PM 61.1667 -62.4167 230° Southwest 390 449 32,000  Level Gander Center
03:26PM 61.0833 -62.5833 224° Southwest 380 437 32,000  Level Gander Center
03:27PM 61.0333 -62.7500 238° Southwest 380 437 32,000  Level Gander Center
03:28PM 60.9667 -62.9333 233° Southwest 380 437 32,000  Level Gander Center
03:30PM 60.9000 -63.0667 224° Southwest 380 437 32,000  Level Montreal Center
03:31PM 60.8333 -63.2667 236° Southwest 370 426 32,000  Level Montreal Center
03:32PM 60.7667 -63.4333 231° Southwest 360 414 32,000  Level Montreal Center
03:33PM 60.7000 -63.6000 231° Southwest 360 414 32,000  Level Montreal Center
03:34PM 60.6333 -63.7667 231° Southwest 360 414 32,000 300 Level Montreal Center
03:35PM 60.5833 -63.9167 236° Southwest 360 414 32,700 900 Climbing Montreal Center
03:36PM 60.5167 -64.0833 231° Southwest 360 414 33,900 600 Climbing Montreal Center
03:37PM 60.4500 -64.2500 231° Southwest 370 426 34,000  Climbing Montreal Center
03:38PM 60.3833 -64.4000 228° Southwest 370 426 34,000  Level Montreal Center
03:39PM 60.3167 -64.5667 231° Southwest 360 414 34,000  Level Montreal Center
03:40PM 60.2667 -64.7167 236° Southwest 360 414 34,000  Level Montreal Center
03:41PM 60.2000 -64.8833 231° Southwest 350 403 34,000  Level Montreal Center
03:42PM 60.1333 -65.0333 228° Southwest 360 414 34,000  Level Montreal Center
03:43PM 60.0833 -65.1833 236° Southwest 360 414 34,000  Level Montreal Center
03:44PM 60.0000 -65.3167 219° Southwest 360 414 34,000  Level Montreal Center
03:45PM 59.9333 -65.4667 228° Southwest 360 414 34,000  Level Montreal Center
03:46PM 59.8667 -65.6333 231° Southwest 360 414 34,000  Level Montreal Center
03:47PM 59.8000 -65.7833 229° Southwest 360 414 34,000  Level Montreal Center
03:48PM 59.7333 -65.9333 229° Southwest 360 414 34,000  Level Montreal Center
03:49PM 59.6500 -66.1000 225° Southwest 360 414 34,000  Level Montreal Center
03:50PM 59.6000 -66.2167 230° Southwest 360 414 34,000  Level Montreal Center
03:51PM 59.5167 -66.3667 222° Southwest 360 414 34,000  Level Montreal Center
03:52PM 59.4500 -66.5167 229° Southwest 360 414 34,000  Level Montreal Center
03:53PM 59.4000 -66.6667 237° Southwest 360 414 34,000  Level Montreal Center
03:54PM 59.3167 -66.7833 216° Southwest 360 414 34,000  Level Montreal Center
03:55PM 59.2333 -66.9333 223° Southwest 360 414 34,000  Level Montreal Center
03:56PM 59.1667 -67.1333 237° Southwest 360 414 34,000  Level Gander Center
03:57PM 59.0833 -67.1500 186° South 350 403 34,000  Level Montreal Center
03:58PM 59.0167 -67.2667 222° Southwest 330 380 34,000  Level Montreal Center
03:59PM 58.9333 -67.3500 207° Southwest 330 380 34,000  Level Montreal Center
04:00PM 58.8500 -67.4667 216° Southwest 330 380 34,000  Level Montreal Center
04:01PM 58.7667 -67.5500 207° Southwest 320 368 34,000  Level Montreal Center
04:02PM 58.7000 -67.6333 213° Southwest 320 368 34,000  Level Montreal Center
04:03PM 58.6333 -67.7500 222° Southwest 320 368 34,000  Level Montreal Center
04:04PM 58.5500 -67.8333 208° Southwest 330 380 34,000  Level Montreal Center
04:05PM 58.4833 -67.9500 222° Southwest 330 380 34,000  Level Montreal Center
04:06PM 58.4000 -68.0167 203° Southwest 330 380 34,000  Level Montreal Center
04:07PM 58.3167 -68.1333 216° Southwest 340 391 34,000  Level Montreal Center
04:08PM 58.2333 -68.2167 208° Southwest 340 391 34,000  Level Montreal Center
04:09PM 58.1333 -68.3333 212° Southwest 350 403 34,000  Level Montreal Center
04:10PM 58.0167 -68.4833 214° Southwest 340 391 34,000  Level Montreal Center
04:11PM 57.9500 -68.6000 223° Southwest 340 391 34,000  Level Montreal Center
04:12PM 57.8833 -68.7167 223° Southwest 340 391 34,000  Level Montreal Center
04:13PM 57.7833 -68.8167 208° Southwest 340 391 34,000  Level Montreal Center
04:14PM 57.7167 -68.9333 223° Southwest 340 391 34,000  Level Montreal Center
04:15PM 57.6500 -69.0000 208° Southwest 340 391 34,000  Level Montreal Center
04:16PM 57.5667 -69.1167 217° Southwest 340 391 34,000  Level Montreal Center
04:17PM 57.4833 -69.2333 217° Southwest 340 391 34,000  Level Montreal Center
04:18PM 57.4167 -69.3333 219° Southwest 340 391 34,000  Level Montreal Center
04:19PM 57.3333 -69.4500 217° Southwest 340 391 34,000  Level Montreal Center
04:20PM 57.2500 -69.5500 213° Southwest 340 391 34,000  Level Montreal Center
04:21PM 57.1667 -69.6500 213° Southwest 340 391 34,000  Level Montreal Center
04:22PM 57.0833 -69.7333 209° Southwest 350 403 34,000  Level Montreal Center
04:23PM 57.0167 -69.8333 219° Southwest 350 403 34,000  Level Montreal Center
04:24PM 56.9333 -69.9500 217° Southwest 350 403 34,000  Level Montreal Center
04:25PM 56.8500 -70.0500 213° Southwest 350 403 34,000  Level Montreal Center
04:26PM 56.7667 -70.1500 213° Southwest 350 403 34,000  Level Montreal Center
04:28PM 56.6500 -70.3833 228° Southwest 360 414 34,000  Level Gander Center
04:29PM 56.5500 -70.4833 209° Southwest 360 414 34,000  Level Gander Center
04:30PM 56.4667 -70.5833 214° Southwest 360 414 34,000  Level Gander Center
04:31PM 56.3833 -70.6833 214° Southwest 360 414 34,000  Level Gander Center
04:32PM 56.3000 -70.7833 214° Southwest 360 414 34,000  Level Gander Center
04:33PM 56.2167 -70.8833 214° Southwest 360 414 34,000  Level Gander Center
04:34PM 56.1500 -70.9833 220° Southwest 360 414 34,000  Level Gander Center
04:35PM 56.0500 -71.0833 209° Southwest 360 414 34,000  Level Gander Center
04:36PM 55.9833 -71.1833 220° Southwest 360 414 34,000  Level Gander Center
04:37PM 55.8833 -71.2833 209° Southwest 370 426 34,000  Level Gander Center
04:38PM 55.8167 -71.3833 220° Southwest 360 414 34,000  Level Gander Center
04:39PM 55.7167 -71.4833 209° Southwest 370 426 34,000  Level Gander Center
04:40PM 55.6333 -71.5667 209° Southwest 370 426 34,000  Level Gander Center
04:41PM 55.5500 -71.6667 214° Southwest 380 437 34,000  Level Gander Center
04:42PM 55.4667 -71.8000 222° Southwest 370 426 34,000  Level Gander Center
04:43PM 55.3667 -71.8833 205° Southwest 380 437 34,000  Level Gander Center
04:44PM 55.3000 -71.9833 221° Southwest 380 437 34,000  Level Gander Center
04:45PM 55.2000 -72.0833 210° Southwest 380 437 34,000  Level Gander Center
04:46PM 55.1000 -72.2000 214° Southwest 380 437 34,000  Level Gander Center
04:47PM 55.0333 -72.3000 221° Southwest 380 437 34,000  Level Gander Center
04:48PM 54.9333 -72.4000 210° Southwest 380 437 34,000  Level Gander Center
04:49PM 54.8500 -72.4833 210° Southwest 390 449 34,000  Level Gander Center
04:50PM 54.7500 -72.6000 214° Southwest 390 449 34,000  Level Gander Center
04:51PM 54.6667 -72.7000 215° Southwest 390 449 34,000  Level Gander Center
04:52PM 54.5833 -72.8000 215° Southwest 390 449 34,000  Level Gander Center
04:53PM 54.4667 -72.9000 206° Southwest 390 449 34,000  Level Gander Center
04:54PM 54.4000 -73.0000 221° Southwest 390 449 34,000  Level Gander Center
04:55PM 54.3000 -73.1167 214° Southwest 400 460 34,000  Level Gander Center
04:56PM 54.2000 -73.2000 206° Southwest 400 460 34,000  Level Gander Center
04:57PM 54.1167 -73.3000 215° Southwest 400 460 34,000  Level Gander Center
04:58PM 54.0167 -73.4167 214° Southwest 400 460 34,000  Level Gander Center
04:59PM 53.9167 -73.5000 206° Southwest 400 460 34,000  Level Gander Center
05:00PM 53.8333 -73.6167 220° Southwest 400 460 34,000  Level Gander Center
05:01PM 53.7333 -73.7000 206° Southwest 410 472 34,000  Level Gander Center
05:02PM 53.6333 -73.7833 206° Southwest 410 472 34,000  Level Gander Center
05:03PM 53.5333 -73.9000 215° Southwest 410 472 34,000  Level Gander Center
05:04PM 53.4333 -73.9833 206° Southwest 410 472 34,000  Level Gander Center
05:05PM 53.3167 -74.0667 203° Southwest 410 472 34,000  Level Gander Center
05:06PM 53.2167 -74.1500 207° Southwest 420 483 34,000  Level Gander Center
05:07PM 53.1167 -74.2333 207° Southwest 420 483 34,000  Level Gander Center
05:08PM 53.0000 -74.3333 207° Southwest 420 483 34,000  Level Gander Center
05:09PM 52.9167 -74.4167 211° Southwest 420 483 34,000  Level Gander Center
05:10PM 52.8000 -74.5000 203° Southwest 420 483 34,000  Level Gander Center
05:11PM 52.7000 -74.5833 207° Southwest 420 483 34,000  Level Gander Center
05:12PM 52.6000 -74.6500 202° Southwest 430 495 34,000  Level Gander Center
05:13PM 52.4833 -74.7667 211° Southwest 420 483 34,000  Level Gander Center
05:14PM 52.3667 -74.8333 199° South 420 483 34,000  Level Gander Center
05:15PM 52.2833 -74.9167 211° Southwest 430 495 34,000  Level Gander Center
05:16PM 52.1667 -75.0000 204° Southwest 430 495 34,000  Level Gander Center
05:17PM 52.0667 -75.0667 202° Southwest 430 495 34,000  Level Gander Center
05:18PM 51.9667 -75.1833 216° Southwest 430 495 34,000  Level Gander Center
05:19PM 51.8500 -75.2500 199° South 420 483 34,000  Level Gander Center
05:20PM 51.7500 -75.3333 207° Southwest 420 483 34,000  Level Gander Center
05:21PM 51.6000 -75.4000 195° South 420 483 34,000  Level Montreal Center
05:22PM 51.4833 -75.4833 204° Southwest 420 483 34,000  Level Montreal Center
05:23PM 51.3833 -75.5667 207° Southwest 420 483 34,000  Level Montreal Center
05:24PM 51.2667 -75.6500 204° Southwest 420 483 34,000  Level Montreal Center
05:25PM 51.1667 -75.7167 203° Southwest 420 483 34,000  Level Montreal Center
05:26PM 51.0667 -75.8000 208° Southwest 420 483 34,000  Level Montreal Center
05:27PM 50.9500 -75.8833 204° Southwest 420 483 34,000  Level Montreal Center
05:28PM 50.8500 -75.9667 208° Southwest 420 483 34,000  Level Montreal Center
05:29PM 50.7500 -76.0500 208° Southwest 420 483 34,000  Level Montreal Center
05:30PM 50.6333 -76.1167 200° South 410 472 34,000  Level Montreal Center
05:31PM 50.5333 -76.2000 208° Southwest 400 460 34,000  Level Montreal Center
05:32PM 50.4500 -76.2500 201° Southwest 400 460 34,000  Level Montreal Center
05:33PM 50.3333 -76.3333 205° Southwest 410 472 34,000  Level Montreal Center
05:34PM 50.2333 -76.4167 208° Southwest 410 472 34,000  Level Montreal Center
05:35PM 50.1333 -76.4833 203° Southwest 410 472 34,000  Level Montreal Center
05:36PM 50.0167 -76.5667 205° Southwest 410 472 34,000  Level Montreal Center
05:37PM 49.9167 -76.6500 208° Southwest 400 460 34,000  Level Montreal Center
05:38PM 49.8167 -76.7000 198° South 410 472 34,000  Level Montreal Center
05:39PM 49.7000 -76.7667 200° South 400 460 34,000  Level Montreal Center
05:40PM 49.6000 -76.8500 208° Southwest 410 472 34,000  Level Montreal Center
05:41PM 49.5000 -76.9167 203° Southwest 390 449 34,000  Level Montreal Center
05:42PM 49.4000 -77.0000 208° Southwest 420 483 34,000  Level Montreal Center
05:43PM 49.2833 -77.0667 200° South 410 472 34,000  Level Montreal Center
05:44PM 49.2000 -77.1500 213° Southwest 400 460 34,000  Level Montreal Center
05:45PM 49.0833 -77.2167 201° Southwest 420 483 34,000  Level Montreal Center
05:46PM 48.9833 -77.3000 209° Southwest 420 483 34,000  Level Montreal Center
05:47PM 48.8667 -77.3500 196° South 420 483 34,000  Level Montreal Center
05:48PM 48.7667 -77.4167 204° Southwest 420 483 34,000  Level Montreal Center
05:49PM 48.6500 -77.5000 205° Southwest 420 483 34,000  Level Montreal Center
05:55PM 48.0160 -77.9130 205° Southwest 427 491 34,000  Level FlightAware
05:56PM 47.9270 -77.9650 201° Southwest 427 491 34,000  Level FlightAware
05:57PM 47.8310 -78.0200 201° Southwest 427 491 34,000  Level FlightAware
05:58PM 47.7560 -78.0630 201° Southwest 427 491 34,000  Level FlightAware
05:59PM 47.6420 -78.1310 202° Southwest 430 495 34,000  Level FlightAware
06:00PM 47.5380 -78.1910 201° Southwest 431 496 34,000  Level FlightAware
06:00PM 47.4860 -78.2210 201° Southwest 431 496 34,000  Level FlightAware
06:01PM 47.3840 -78.2790 201° Southwest 431 496 34,000  Level FlightAware
06:01PM 47.3300 -78.3100 201° Southwest 430 495 34,000  Level FlightAware
06:02PM 47.2200 -78.3720 201° Southwest 430 495 34,000  Level FlightAware
06:03PM 47.1750 -78.3980 201° Southwest 429 494 34,000  Level FlightAware
06:04PM 47.0610 -78.4630 201° Southwest 430 495 34,000  Level FlightAware
06:04PM 46.9970 -78.4980 200° South 429 494 34,000  Level FlightAware
06:06PM 46.8780 -78.5650 201° Southwest 428 493 34,000  Level FlightAware
06:06PM 46.8230 -78.5960 201° Southwest 426 490 34,000  Level FlightAware
06:07PM 46.7670 -78.6270 201° Southwest 426 490 34,000  Level FlightAware
06:07PM 46.7130 -78.6570 201° Southwest 426 490 34,000  Level FlightAware
06:07PM 46.6650 -78.6840 201° Southwest 425 489 34,000 420 Level FlightAware
06:08PM 46.5610 -78.7410 201° Southwest 421 484 34,600 720 Climbing FlightAware
06:09PM 46.5070 -78.7710 201° Southwest 424 488 35,100 840 Climbing FlightAware
06:10PM 46.3970 -78.8310 201° Southwest 418 481 35,900 480 Climbing FlightAware
06:11PM 46.3170 -78.8750 201° Southwest 419 482 36,000  Climbing FlightAware
06:12PM 46.2120 -78.9330 201° Southwest 419 482 36,000  Level FlightAware
06:12PM 46.1580 -78.9620 200° South 416 479 36,000  Level FlightAware
06:13PM 46.0820 -79.0030 201° Southwest 416 479 36,000  Level FlightAware
06:13PM 46.0250 -79.0340 201° Southwest 415 478 36,000  Level FlightAware
06:14PM 45.9530 -79.0730 201° Southwest 416 479 36,000  Level FlightAware
06:15PM 45.8520 -79.1270 200° South 418 481 36,000  Level FlightAware
06:16PM 45.7540 -79.1800 201° Southwest 419 482 36,000  Level FlightAware
06:16PM 45.6850 -79.2170 201° Southwest 420 483 36,000  Level FlightAware
06:17PM 45.5910 -79.2670 200° South 421 484 36,000  Level FlightAware
06:18PM 45.5020 -79.3140 200° South 422 486 36,000  Level FlightAware
06:19PM 45.4550 -79.3390 200° South 421 484 36,000  Level FlightAware
06:19PM 45.3880 -79.3740 200° South 421 484 36,000  Level FlightAware
06:20PM 45.2800 -79.4310 200° South 421 484 36,000  Level FlightAware
06:21PM 45.2250 -79.4540 196° South 430 495 36,000  Level FlightAware
06:21PM 45.1280 -79.4770 189° South 430 495 36,000  Level FlightAware
06:22PM 45.0670 -79.4910 189° South 431 496 36,000  Level FlightAware
06:22PM 45.0140 -79.5030 189° South 432 497 36,000  Level FlightAware
06:23PM 44.9010 -79.5300 190° South 432 497 36,000  Level FlightAware
06:24PM 44.7990 -79.5550 190° South 430 495 36,000  Level FlightAware
06:25PM 44.7360 -79.5700 190° South 429 494 36,000  Level FlightAware
06:25PM 44.6900 -79.5810 190° South 429 494 36,000  Level FlightAware
06:26PM 44.6040 -79.6020 190° South 430 495 36,000  Level FlightAware
06:27PM 44.5170 -79.6230 190° South 430 495 36,000  Level FlightAware
06:28PM 44.4130 -79.6490 190° South 431 496 36,000  Level FlightAware
06:28PM 44.3400 -79.6660 189° South 433 498 36,000  Level FlightAware
06:29PM 44.2470 -79.6880 190° South 432 497 36,000  Level FlightAware
06:29PM 44.1850 -79.7110 195° South 423 487 36,000  Level FlightAware
06:30PM 44.0910 -79.7860 210° Southwest 415 478 36,000  Level FlightAware
06:31PM 44.0100 -79.8610 214° Southwest 415 478 36,000  Level FlightAware
06:32PM 43.9520 -79.9150 214° Southwest 415 478 36,000  Level FlightAware
06:32PM 43.9080 -79.9560 214° Southwest 415 478 36,000  Level FlightAware
06:33PM 43.8560 -80.0030 213° Southwest 415 478 36,000  Level FlightAware
06:34PM 43.7620 -80.0900 214° Southwest 417 480 36,000  Level FlightAware
06:34PM 43.7120 -80.1340 212° Southwest 417 480 36,000  Level FlightAware
06:35PM 43.6330 -80.2060 213° Southwest 417 480 36,000  Level FlightAware
06:36PM 43.5949 -80.2416 214° Southwest 416 479 36,000  Level FlightAware ADS-B (CYHM)
06:37PM 43.4550 -80.3680 213° Southwest 415 478 36,000  Level FlightAware
06:38PM 43.4114 -80.4076 213° Southwest 416 479 36,000  Level FlightAware ADS-B (CYHM)
06:39PM 43.2830 -80.5230 213° Southwest 414 476 36,000  Level FlightAware
06:40PM 43.2080 -80.5900 213° Southwest 414 476 36,000  Level FlightAware
06:40PM 43.1420 -80.6490 213° Southwest 413 475 36,000  Level FlightAware
06:41PM 43.0580 -80.7240 213° Southwest 414 476 36,000  Level FlightAware
06:42PM 43.0060 -80.7700 213° Southwest 413 475 36,000  Level FlightAware
06:42PM 42.9530 -80.8170 213° Southwest 414 476 36,000  Level FlightAware
06:43PM 42.8720 -80.8890 213° Southwest 415 478 36,000  Level FlightAware
06:44PM 42.7760 -80.9710 212° Southwest 415 478 36,000  Level FlightAware
06:45PM 42.7060 -81.0310 212° Southwest 415 478 36,000  Level FlightAware
06:46PM 42.6310 -81.0950 212° Southwest 414 476 36,000  Level FlightAware
06:46PM 42.5590 -81.1570 212° Southwest 414 476 36,000  Level FlightAware
06:47PM 42.4900 -81.2160 212° Southwest 414 476 36,000  Level FlightAware
06:48PM 42.3970 -81.2950 212° Southwest 414 476 36,000  Level FlightAware
06:49PM 42.3100 -81.3690 212° Southwest 413 475 36,000  Level FlightAware
06:50PM 42.2320 -81.4350 212° Southwest 412 474 36,000  Level FlightAware
06:50PM 42.1770 -81.4820 212° Southwest 412 474 36,000  Level FlightAware
06:51PM 42.0870 -81.5580 212° Southwest 412 474 36,000  Level FlightAware
06:52PM 41.9960 -81.6340 212° Southwest 412 474 36,000  Level FlightAware
06:53PM 41.9180 -81.6990 212° Southwest 412 474 36,000  Level FlightAware
06:54PM 41.8380 -81.7660 212° Southwest 411 473 36,000  Level FlightAware
06:54PM 41.7790 -81.8150 212° Southwest 410 472 36,000  Level FlightAware
06:55PM 41.7140 -81.8690 212° Southwest 411 473 36,000  Level FlightAware
06:56PM 41.6310 -81.9360 211° Southwest 414 476 36,000  Level FlightAware
06:57PM 41.5330 -81.9910 203° Southwest 428 493 36,000  Level FlightAware
06:57PM 41.4650 -82.0200 198° South 429 494 36,000  Level FlightAware
06:58PM 41.3900 -82.0520 198° South 426 490 36,000  Level FlightAware
06:59PM 41.3070 -82.0890 199° South 425 489 36,000  Level FlightAware
07:00PM 41.2230 -82.1260 198° South 423 487 36,000  Level FlightAware
07:00PM 41.1390 -82.1630 198° South 421 484 36,000  Level FlightAware
07:01PM 41.0450 -82.2040 198° South 419 482 36,000  Level FlightAware
07:02PM 40.9390 -82.2500 198° South 419 482 36,000  Level FlightAware
07:03PM 40.8420 -82.2920 198° South 419 482 36,000  Level FlightAware
07:04PM 40.7420 -82.3290 196° South 423 487 36,000  Level FlightAware
07:05PM 40.6610 -82.3570 195° South 424 488 36,000  Level FlightAware
07:06PM 40.5510 -82.3940 194° South 422 486 36,000  Level FlightAware
07:06PM 40.4680 -82.4230 195° South 421 484 36,000  Level FlightAware
07:07PM 40.3640 -82.4580 194° South 421 484 36,000  Level FlightAware
07:08PM 40.2950 -82.4820 195° South 421 484 36,000  Level FlightAware
07:09PM 40.2040 -82.5130 195° South 420 483 36,000  Level FlightAware
07:09PM 40.1060 -82.5470 195° South 421 484 36,000  Level FlightAware
07:10PM 39.9970 -82.5840 195° South 421 484 36,000  Level FlightAware
07:11PM 39.9450 -82.6020 195° South 421 484 36,000  Level FlightAware
07:12PM 39.8380 -82.6380 194° South 422 486 36,000  Level FlightAware
07:12PM 39.7710 -82.6600 194° South 422 486 36,000  Level FlightAware
07:13PM 39.7190 -82.6780 195° South 422 486 36,000  Level FlightAware
07:14PM 39.6190 -82.7120 195° South 421 484 36,000  Level FlightAware
07:15PM 39.5220 -82.7440 194° South 421 484 36,000  Level FlightAware
07:15PM 39.4430 -82.7710 195° South 421 484 36,000  Level FlightAware
07:16PM 39.3400 -82.8050 194° South 420 483 36,000  Level FlightAware
07:17PM 39.2360 -82.8390 194° South 417 480 36,000  Level FlightAware
07:18PM 39.1750 -82.8600 195° South 417 480 36,000  Level FlightAware
07:19PM 39.0860 -82.8890 194° South 416 479 36,000  Level FlightAware
07:19PM 39.0000 -82.9180 195° South 415 478 36,000  Level FlightAware
07:20PM 38.9160 -82.9450 194° South 414 476 36,000  Level FlightAware
07:21PM 38.8670 -82.9610 194° South 414 476 36,000  Level FlightAware
07:21PM 38.7890 -82.9870 195° South 413 475 36,000  Level FlightAware
07:22PM 38.7236 -83.0082 194° South 413 475 36,000  Level FlightAware ADS-B
07:23PM 38.6274 -83.0397 194° South 414 476 36,000  Level FlightAware ADS-B
07:23PM 38.5644 -83.0602 194° South 416 479 36,000  Level FlightAware ADS-B
07:24PM 38.4880 -83.0850 194° South 414 476 36,000  Level FlightAware
07:25PM 38.3990 -83.1140 194° South 414 476 36,000  Level FlightAware
07:26PM 38.3040 -83.1450 194° South 416 479 36,000  Level FlightAware
07:26PM 38.2300 -83.1680 194° South 416 479 36,000  Level FlightAware
07:26PM 38.1985 -83.1786 195° South 417 480 36,000  Level FlightAware ADS-B
07:27PM 38.1420 -83.1968 194° South 418 481 36,000  Level FlightAware ADS-B
07:27PM 38.0817 -83.2162 194° South 418 481 36,000  Level FlightAware ADS-B
07:28PM 37.9885 -83.2462 194° South 418 481 36,000  Level FlightAware ADS-B
07:29PM 37.9265 -83.2659 194° South 419 482 36,000  Level FlightAware ADS-B
07:29PM 37.8629 -83.2862 194° South 421 484 36,000  Level FlightAware ADS-B
07:30PM 37.8052 -83.3047 194° South 421 484 36,000  Level FlightAware ADS-B
07:30PM 37.7456 -83.3237 194° South 420 483 36,000  Level FlightAware ADS-B
07:31PM 37.6865 -83.3424 194° South 419 482 36,000  Level FlightAware ADS-B
07:32PM 37.6287 -83.3608 194° South 419 482 36,000  Level FlightAware ADS-B
07:32PM 37.5441 -83.3874 194° South 419 482 36,000  Level FlightAware ADS-B
07:33PM 37.4878 -83.4052 194° South 419 482 36,000  Level FlightAware ADS-B
07:33PM 37.4311 -83.4232 194° South 419 482 36,000  Level FlightAware ADS-B
07:34PM 37.3338 -83.4539 194° South 419 482 36,000  Level FlightAware ADS-B
07:35PM 37.2747 -83.4724 194° South 420 483 36,000  Level FlightAware ADS-B
07:35PM 37.2155 -83.4910 194° South 421 484 36,000  Level FlightAware ADS-B
07:36PM 37.1448 -83.5131 194° South 421 484 36,000  Level FlightAware ADS-B
07:36PM 37.0846 -83.5319 194° South 423 487 36,000  Level FlightAware ADS-B
07:37PM 37.0269 -83.5500 194° South 424 488 36,000  Level FlightAware ADS-B
07:38PM 36.9446 -83.5755 194° South 425 489 36,000  Level FlightAware ADS-B
07:38PM 36.8875 -83.5933 194° South 424 488 36,000  Level FlightAware ADS-B
07:39PM 36.8270 -83.6121 194° South 425 489 36,000  Level FlightAware ADS-B
07:39PM 36.7664 -83.6309 194° South 424 488 36,000  Level FlightAware ADS-B
07:40PM 36.7073 -83.6491 194° South 424 488 36,000  Level FlightAware ADS-B
07:40PM 36.6498 -83.6669 194° South 423 487 36,000  Level FlightAware ADS-B
07:41PM 36.5922 -83.6846 194° South 422 486 36,000  Level FlightAware ADS-B
07:41PM 36.5355 -83.7021 194° South 421 484 36,000  Level FlightAware ADS-B
07:42PM 36.4766 -83.7202 194° South 420 483 36,000  Level FlightAware ADS-B
07:42PM 36.4184 -83.7381 194° South 420 483 36,000  Level FlightAware ADS-B
07:43PM 36.3614 -83.7556 194° South 420 483 36,000  Level FlightAware ADS-B
07:43PM 36.3019 -83.7737 194° South 422 486 36,000  Level FlightAware ADS-B
07:44PM 36.2447 -83.7912 194° South 422 486 36,000  Level FlightAware ADS-B
07:44PM 36.1874 -83.8088 194° South 423 487 36,000  Level FlightAware ADS-B
07:45PM 36.1121 -83.8317 194° South 423 487 36,000  Level FlightAware ADS-B
07:45PM 36.0523 -83.8499 194° South 423 487 36,000  Level FlightAware ADS-B
07:46PM 35.9880 -83.8693 194° South 423 487 36,000  Level FlightAware ADS-B
07:47PM 35.9214 -83.8895 194° South 423 487 36,000  Level FlightAware ADS-B
07:47PM 35.8692 -83.9046 193° South 425 489 36,000  Level FlightAware ADS-B
07:48PM 35.8090 -83.9184 191° South 427 491 36,000  Level FlightAware ADS-B
07:48PM 35.7479 -83.9325 191° South 428 493 36,000  Level FlightAware ADS-B
07:49PM 35.6880 -83.9469 191° South 429 494 36,000  Level FlightAware ADS-B
07:49PM 35.6211 -83.9632 191° South 428 493 36,000  Level FlightAware ADS-B
07:50PM 35.5478 -83.9811 191° South 430 495 36,000  Level FlightAware ADS-B
07:50PM 35.4885 -83.9956 191° South 430 495 36,000  Level FlightAware ADS-B
07:51PM 35.4290 -84.0100 191° South 432 497 36,000  Level FlightAware ADS-B
07:51PM 35.3686 -84.0247 191° South 432 497 36,000  Level FlightAware ADS-B
07:52PM 35.2983 -84.0416 191° South 432 497 36,000  Level FlightAware ADS-B
07:52PM 35.2378 -84.0561 191° South 433 498 36,000  Level FlightAware ADS-B
07:53PM 35.1769 -84.0706 191° South 433 498 36,000  Level FlightAware ADS-B
07:54PM 35.0978 -84.0896 191° South 433 498 36,000  Level FlightAware ADS-B
07:54PM 35.0294 -84.1060 191° South 433 498 36,000  Level FlightAware ADS-B
07:55PM 34.9110 -84.1340 191° South 434 499 36,000  Level FlightAware
07:55PM 34.8783 -84.1420 191° South 434 499 36,000  Level FlightAware ADS-B
07:56PM 34.8189 -84.1562 191° South 434 499 36,000  Level FlightAware ADS-B
07:56PM 34.7581 -84.1706 191° South 435 501 36,000  Level FlightAware ADS-B
07:57PM 34.6972 -84.1851 191° South 435 501 36,000  Level FlightAware ADS-B
07:58PM 34.6315 -84.2006 191° South 436 502 36,000  Level FlightAware ADS-B
07:58PM 34.5697 -84.2152 191° South 436 502 36,000  Level FlightAware ADS-B
07:59PM 34.5092 -84.2295 191° South 435 501 36,000  Level FlightAware ADS-B
07:59PM 34.4487 -84.2437 191° South 435 501 36,000  Level FlightAware ADS-B
08:00PM 34.3879 -84.2580 191° South 435 501 36,000  Level FlightAware ADS-B
08:00PM 34.3056 -84.2775 191° South 436 502 36,000  Level FlightAware ADS-B
08:01PM 34.1770 -84.3080 191° South 435 501 36,000  Level FlightAware
08:02PM 34.0680 -84.3330 191° South 436 502 36,000  Level FlightAware
08:03PM 34.0390 -84.3400 191° South 436 502 36,000 180 Level FlightAware
08:04PM 33.8852 -84.3755 191° South 433 498 36,300 360 Climbing FlightAware ADS-B
08:04PM 33.8239 -84.3898 191° South 429 494 36,700 660 Climbing FlightAware ADS-B
08:05PM 33.7613 -84.4043 191° South 432 497 37,000 240 Climbing FlightAware ADS-B
08:05PM 33.7006 -84.4184 191° South 438 504 37,000  Level FlightAware ADS-B
08:06PM 33.6492 -84.4296 190° South 443 510 37,000  Level FlightAware ADS-B
08:06PM 33.6022 -84.4339 184° South 450 518 37,000  Level FlightAware ADS-B
08:07PM 33.5341 -84.4335 180° South 452 520 37,000  Level FlightAware ADS-B
08:07PM 33.4423 -84.4312 179° South 452 520 37,000  Level FlightAware ADS-B
08:09PM 33.2896 -84.4277 179° South 449 517 37,000  Level FlightAware ADS-B
08:10PM 33.1520 -84.4250 179° South 445 512 37,000  Level FlightAware
08:10PM 33.0950 -84.4240 179° South 444 511 37,000  Level FlightAware
08:11PM 32.9750 -84.4220 179° South 443 510 37,000  Level FlightAware
08:12PM 32.9120 -84.4200 178° South 442 509 37,000  Level FlightAware
08:12PM 32.8460 -84.4190 179° South 441 507 37,000  Level FlightAware
08:13PM 32.7550 -84.4170 179° South 440 506 37,000  Level FlightAware
08:14PM 32.6380 -84.4150 179° South 440 506 37,000  Level FlightAware
08:15PM 32.5320 -84.4130 179° South 439 505 37,000  Level FlightAware
08:16PM 32.4450 -84.4110 179° South 438 504 37,000  Level FlightAware
08:16PM 32.3570 -84.4090 179° South 437 503 37,000  Level FlightAware
08:17PM 32.3020 -84.4080 179° South 437 503 37,000  Level FlightAware
08:17PM 32.2160 -84.4060 179° South 436 502 37,000  Level FlightAware
08:18PM 32.1510 -84.4050 179° South 435 501 37,000  Level FlightAware
08:18PM 32.0920 -84.4040 179° South 434 499 37,000  Level FlightAware
08:19PM 31.9810 -84.4020 179° South 430 495 37,000  Level FlightAware
08:20PM 31.9230 -84.4010 179° South 428 493 37,000  Level FlightAware
08:21PM 31.8120 -84.3980 179° South 423 487 37,000  Level FlightAware
08:22PM 31.6950 -84.3960 179° South 419 482 37,000  Level FlightAware
08:23PM 31.5940 -84.3940 179° South 417 480 37,000  Level FlightAware
08:24PM 31.4800 -84.3920 179° South 416 479 37,000  Level FlightAware
08:25PM 31.3800 -84.3900 179° South 417 480 37,000  Level FlightAware
08:25PM 31.3180 -84.3890 179° South 418 481 37,000  Level FlightAware
08:26PM 31.2160 -84.3870 179° South 419 482 37,000  Level FlightAware
08:27PM 31.1510 -84.3850 178° South 420 483 37,000  Level FlightAware
08:27PM 31.0878 -84.3841 179° South 420 483 37,000  Level FlightAware ADS-B (KTLH)
08:28PM 30.9500 -84.3810 179° South 425 489 37,000  Level FlightAware
08:29PM 30.8230 -84.3790 179° South 419 482 37,000  Level FlightAware
08:30PM 30.7400 -84.3770 179° South 415 478 37,000  Level FlightAware
08:31PM 30.6799 -84.3762 179° South 412 474 37,000  Level FlightAware ADS-B (KTLH)
08:31PM 30.6175 -84.3749 179° South 411 473 37,000  Level FlightAware ADS-B (KTLH)
08:32PM 30.5666 -84.3709 176° South 428 493 37,000  Level FlightAware ADS-B (KTLH)
08:32PM 30.4620 -84.3130 154° Southeast 457 526 37,000  Level FlightAware
08:33PM 30.4363 -84.2965 151° Southeast 460 529 37,000  Level FlightAware ADS-B (KTLH)
08:33PM 30.3720 -84.2540 150° Southeast 461 531 37,000  Level FlightAware
08:34PM 30.3386 -84.2318 150° Southeast 461 531 37,000  Level FlightAware ADS-B (KTLH)
08:34PM 30.2931 -84.1919 143° Southeast 481 554 37,000  Level FlightAware ADS-B (KTLH)
08:35PM 30.2278 -84.1001 129° Southeast 485 558 37,000  Level FlightAware ADS-B (KTLH)
08:35PM 30.1810 -84.0340 129° Southeast 490 564 37,000  Level FlightAware
08:36PM 30.1200 -83.9710 138° Southeast 474 545 37,000  Level FlightAware
08:36PM 30.0636 -83.9316 149° Southeast 475 547 37,000  Level FlightAware ADS-B (KTLH)
08:38PM 29.9170 -83.8580 156° South 465 535 37,000  Level FlightAware
08:38PM 29.8310 -83.8160 157° South 467 537 37,000  Level FlightAware
08:39PM 29.7300 -83.7650 156° South 466 536 37,000  Level FlightAware
08:40PM 29.6430 -83.7210 156° South 466 536 37,000  Level FlightAware
08:41PM 29.5610 -83.6790 156° South 466 536 37,000  Level FlightAware
08:41PM 29.5000 -83.6490 157° South 466 536 37,000  Level FlightAware
08:42PM 29.4240 -83.6110 156° South 466 536 37,000  Level FlightAware
08:43PM 29.3170 -83.5570 156° South 467 537 37,000  Level FlightAware
08:44PM 29.2130 -83.5030 156° South 472 543 37,000  Level FlightAware
08:45PM 29.1080 -83.4370 151° Southeast 474 545 37,000  Level FlightAware
08:45PM 29.0020 -83.3700 151° Southeast 476 548 37,000  Level FlightAware
08:46PM 28.8990 -83.3050 151° Southeast 476 548 37,000  Level FlightAware
08:47PM 28.8150 -83.2520 151° Southeast 476 548 37,000  Level FlightAware
08:48PM 28.7080 -83.1840 151° Southeast 476 548 37,000  Level FlightAware
08:49PM 28.6450 -83.1440 151° Southeast 476 548 37,000  Level FlightAware
08:49PM 28.5580 -83.0900 151° Southeast 474 545 37,000  Level FlightAware
08:50PM 28.4490 -83.0220 151° Southeast 473 544 37,000  Level FlightAware
08:51PM 28.3450 -82.9570 151° Southeast 470 541 37,000  Level FlightAware
08:52PM 28.2298 -82.8844 151° Southeast 468 539 37,000  Level FlightAware ADS-B (KMCO)
08:53PM 28.1350 -82.8250 151° Southeast 466 536 37,000  Level FlightAware
08:54PM 28.0400 -82.7661 151° Southeast 466 536 37,000  Level FlightAware ADS-B (KMCO)
08:54PM 27.9792 -82.7285 151° Southeast 465 535 37,000  Level FlightAware ADS-B (KMCO)
08:55PM 27.8570 -82.6822 161° South 449 517 37,000 -360 Level FlightAware ADS-B (KMCO)
08:56PM 27.7760 -82.6780 177° South 452 520 36,400 -960 Descending FlightAware
08:56PM 27.7266 -82.6761 178° South 453 521 36,000 -480 Descending FlightAware ADS-B (KMCO)
08:57PM 27.6607 -82.6733 178° South 453 521 36,000  Level FlightAware ADS-B (KMCO)
08:58PM 27.5891 -82.6703 178° South 456 525 36,000  Level FlightAware ADS-B (KMCO)
08:58PM 27.5030 -82.6670 178° South 460 529 36,000  Level FlightAware
08:59PM 27.4140 -82.6630 178° South 460 529 36,000  Level FlightAware
08:59PM 27.3440 -82.6600 178° South 462 532 36,000  Level FlightAware
09:00PM 27.2320 -82.6550 178° South 466 536 36,000  Level FlightAware
09:01PM 27.1240 -82.6500 178° South 467 537 36,000  Level FlightAware
09:02PM 27.0070 -82.6450 178° South 467 537 36,000  Level FlightAware
09:03PM 26.8850 -82.6400 178° South 467 537 36,000  Level FlightAware
09:04PM 26.7880 -82.6360 178° South 466 536 36,000  Level FlightAware
09:04PM 26.6940 -82.6320 178° South 466 536 36,000  Level FlightAware
09:05PM 26.6320 -82.6290 178° South 465 535 36,000  Level FlightAware
09:06PM 26.5310 -82.6250 178° South 464 534 36,000  Level FlightAware
09:06PM 26.4633 -82.6216 177° South 465 535 36,000  Level FlightAware ADS-B (KMCO)
09:07PM 26.3827 -82.6182 178° South 466 536 36,000  Level FlightAware ADS-B (KMCO)
09:08PM 26.2870 -82.6140 178° South 466 536 36,000  Level FlightAware
09:08PM 26.2220 -82.6110 178° South 467 537 36,000  Level FlightAware
09:09PM 26.1520 -82.6080 178° South 467 537 36,000  Level FlightAware
09:10PM 26.0190 -82.6030 178° South 467 537 36,000  Level FlightAware
09:10PM 25.9670 -82.6010 178° South 468 539 36,000  Level FlightAware
09:11PM 25.8970 -82.5980 178° South 468 539 36,000  Level FlightAware
09:11PM 25.7900 -82.5930 178° South 468 539 36,000  Level FlightAware
09:12PM 25.8484 -82.5955 358° North 468 539 36,000  Level FlightAware ADS-B (KMCO)
09:12PM 25.6640 -82.5880 178° South 467 537 36,000  Level FlightAware
09:13PM 25.5400 -82.5830 178° South 468 539 36,000  Level FlightAware
09:14PM 25.4610 -82.5790 177° South 468 539 36,000  Level FlightAware
09:15PM 25.3440 -82.5740 178° South 469 540 36,000  Level FlightAware
09:16PM 25.2390 -82.5700 178° South 470 541 36,000  Level FlightAware
09:16PM 25.1520 -82.5660 178° South 471 542 36,000  Level FlightAware
09:17PM 25.0900 -82.5640 178° South 468 539 36,000 -420 Level FlightAware
09:17PM 25.0190 -82.5610 178° South 461 531 35,600 -1,320 Descending FlightAware
09:18PM 24.9090 -82.5560 178° South 465 535 34,200 -1,680 Descending FlightAware
09:19PM 24.8360 -82.5530 178° South 448 516 33,200 -1,740 Descending FlightAware
09:20PM 24.7320 -82.5490 178° South 436 502 31,700 -1,800 Descending FlightAware
09:20PM 24.6440 -82.5450 178° South 415 478 30,400 -960 Descending FlightAware
09:21PM 24.5770 -82.5430 178° South 415 478 30,300 -1,020 Descending FlightAware
09:22PM 24.4570 -82.5380 178° South 415 478 28,700 -900 Descending FlightAware
09:23PM 24.3770 -82.5350 178° South 415 478 28,700  Level FlightAware
09:23PM 24.3380 -82.5330 177° South 415 478 28,700  Level FlightAware
09:24PM 24.2580 -82.5300 178° South 415 478 28,700  Level FlightAware
09:25PM 24.1580 -82.5260 178° South 415 478 28,700 -3,360 Level FlightAware
09:26PM 24.0250 -82.5242 178° South 388 447 22,100 -6,840 Descending Miami Center
09:28PM 23.8695 -82.4980 173° South  Level FlightAware Approximate
09:35PM 23.0637 -82.4027 170° South  Level FlightAware Approximate
09:36PM 22.9891 -82.4091 180° South  Level Estimated
09:37PM 22.9891 -82.4091 180° South  Level Estimated
09:38PM 22.9891 -82.4091 180° South  Level Estimated
09:39PM 22.9891 -82.4091 180° South  Level Estimated
09:40PM 22.9891 -82.4091 180° South  Level Estimated
09:41PM 22.9891 -82.4091 180° South  Level Estimated
09:42PM 22.9891 -82.4091 180° South  Level Estimated
09:43PM 22.9891 -82.4091 180° South  Level Estimated
09:44PM 22.9891 -82.4091 180° South  Level Estimated
09:45PM 22.9891 -82.4091 180° South  Level Estimated
09:46PM 22.9891 -82.4091 180° South  Level Estimated
09:47PM 22.9891 -82.4091 180° South  Level Estimated
09:48PM 22.9891 -82.4091 180° South  Level Estimated
09:49PM 22.9891 -82.4091 180° South  Level Estimated
09:50PM 22.9891 -82.4091 180° South  Level Estimated
09:51PM 22.9891 -82.4091 180° South  Level Estimated
09:52PM 22.9891 -82.4091 180° South  Level Estimated
09:53PM 22.9891 -82.4091 180° South  Level Estimated
09:54PM 22.9891 -82.4091 180° South  Level Estimated
09:55PM 22.9891 -82.4091 180° South  Level Estimated
09:56PM 22.9891 -82.4091 180° South  Level Estimated
09:57PM 22.9891 -82.4091 180° South  Level Estimated